sensor_id;sensor_type;location;lat;lon;timestamp;P1;durP1;ratioP1;P2;durP2;ratioP2
50671;SDS011;46021;55.882;37.654;2022-10-16T00:01:59;10.93;;;4.50;;
50671;SDS011;46021;55.882;37.654;2022-10-16T00:04:26;5.78;;;2.25;;
50671;SDS011;46021;55.882;37.654;2022-10-16T00:06:54;5.13;;;2.53;;
50671;SDS011;46021;55.882;37.654;2022-10-16T00:09:21;5.47;;;2.30;;
50671;SDS011;46021;55.882;37.654;2022-10-16T00:11:49;8.98;;;2.55;;
50671;SDS011;46021;55.882;37.654;2022-10-16T00:14:17;10.30;;;4.70;;
50671;SDS011;46021;55.882;37.654;2022-10-16T00:16:44;8.77;;;2.57;;
50671;SDS011;46021;55.882;37.654;2022-10-16T00:19:11;7.00;;;2.90;;
50671;SDS011;46021;55.882;37.654;2022-10-16T00:21:38;8.60;;;2.33;;
50671;SDS011;46021;55.882;37.654;2022-10-16T00:24:24;6.20;;;2.65;;
50671;SDS011;46021;55.882;37.654;2022-10-16T00:26:52;3.95;;;2.17;;
50671;SDS011;46021;55.882;37.654;2022-10-16T00:29:19;7.15;;;3.90;;
50671;SDS011;46021;55.882;37.654;2022-10-16T00:31:46;6.75;;;3.10;;
50671;SDS011;46021;55.882;37.654;2022-10-16T00:36:42;7.40;;;2.40;;
50671;SDS011;46021;55.882;37.654;2022-10-16T00:39:10;4.72;;;2.45;;
50671;SDS011;46021;55.882;37.654;2022-10-16T00:41:37;7.45;;;2.55;;
50671;SDS011;46021;55.882;37.654;2022-10-16T00:47:07;8.23;;;2.53;;
50671;SDS011;46021;55.882;37.654;2022-10-16T00:49:35;11.18;;;4.38;;
50671;SDS011;46021;55.882;37.654;2022-10-16T00:52:03;4.13;;;2.23;;
50671;SDS011;46021;55.882;37.654;2022-10-16T00:54:32;6.38;;;3.10;;
50671;SDS011;46021;55.882;37.654;2022-10-16T00:57:00;5.93;;;2.80;;
50671;SDS011;46021;55.882;37.654;2022-10-16T00:59:30;8.13;;;2.95;;
50671;SDS011;46021;55.882;37.654;2022-10-16T01:01:58;7.53;;;3.17;;
50671;SDS011;46021;55.882;37.654;2022-10-16T01:04:29;10.07;;;4.88;;
50671;SDS011;46021;55.882;37.654;2022-10-16T01:07:03;11.13;;;5.68;;
50671;SDS011;46021;55.882;37.654;2022-10-16T01:09:39;9.93;;;5.10;;
50671;SDS011;46021;55.882;37.654;2022-10-16T01:12:16;6.07;;;2.97;;
50671;SDS011;46021;55.882;37.654;2022-10-16T01:14:52;11.15;;;3.15;;
50671;SDS011;46021;55.882;37.654;2022-10-16T01:17:26;8.13;;;3.58;;
50671;SDS011;46021;55.882;37.654;2022-10-16T01:20:11;6.32;;;2.58;;
50671;SDS011;46021;55.882;37.654;2022-10-16T01:22:55;12.60;;;4.85;;
50671;SDS011;46021;55.882;37.654;2022-10-16T01:25:35;16.15;;;5.28;;
50671;SDS011;46021;55.882;37.654;2022-10-16T01:28:15;10.52;;;3.13;;
50671;SDS011;46021;55.882;37.654;2022-10-16T01:30:45;15.68;;;2.85;;
50671;SDS011;46021;55.882;37.654;2022-10-16T01:33:15;9.57;;;3.60;;
50671;SDS011;46021;55.882;37.654;2022-10-16T01:35:46;6.32;;;2.88;;
50671;SDS011;46021;55.882;37.654;2022-10-16T01:38:20;6.53;;;2.88;;
50671;SDS011;46021;55.882;37.654;2022-10-16T01:40:50;12.48;;;3.28;;
50671;SDS011;46021;55.882;37.654;2022-10-16T01:43:24;11.23;;;2.78;;
50671;SDS011;46021;55.882;37.654;2022-10-16T01:45:57;10.30;;;5.35;;
50671;SDS011;46021;55.882;37.654;2022-10-16T01:48:26;9.82;;;5.32;;
50671;SDS011;46021;55.882;37.654;2022-10-16T01:50:57;6.88;;;3.60;;
50671;SDS011;46021;55.882;37.654;2022-10-16T01:53:27;6.28;;;3.45;;
50671;SDS011;46021;55.882;37.654;2022-10-16T01:55:56;5.00;;;2.60;;
50671;SDS011;46021;55.882;37.654;2022-10-16T01:58:26;9.98;;;3.13;;
50671;SDS011;46021;55.882;37.654;2022-10-16T02:01:00;7.60;;;2.60;;
50671;SDS011;46021;55.882;37.654;2022-10-16T02:03:29;7.25;;;3.08;;
50671;SDS011;46021;55.882;37.654;2022-10-16T02:05:58;6.22;;;3.45;;
50671;SDS011;46021;55.882;37.654;2022-10-16T02:08:25;7.80;;;3.25;;
50671;SDS011;46021;55.882;37.654;2022-10-16T02:10:56;6.97;;;3.05;;
50671;SDS011;46021;55.882;37.654;2022-10-16T02:13:26;9.98;;;5.82;;
50671;SDS011;46021;55.882;37.654;2022-10-16T02:15:57;11.50;;;3.65;;
50671;SDS011;46021;55.882;37.654;2022-10-16T02:18:25;8.98;;;3.42;;
50671;SDS011;46021;55.882;37.654;2022-10-16T02:20:55;6.75;;;3.22;;
50671;SDS011;46021;55.882;37.654;2022-10-16T02:23:28;12.40;;;5.95;;
50671;SDS011;46021;55.882;37.654;2022-10-16T02:26:03;7.88;;;3.20;;
50671;SDS011;46021;55.882;37.654;2022-10-16T02:28:35;10.43;;;3.72;;
50671;SDS011;46021;55.882;37.654;2022-10-16T02:31:07;7.82;;;3.88;;
50671;SDS011;46021;55.882;37.654;2022-10-16T02:33:38;17.48;;;7.80;;
50671;SDS011;46021;55.882;37.654;2022-10-16T02:36:07;12.43;;;6.10;;
50671;SDS011;46021;55.882;37.654;2022-10-16T02:38:34;9.40;;;3.13;;
50671;SDS011;46021;55.882;37.654;2022-10-16T02:41:04;10.40;;;4.05;;
50671;SDS011;46021;55.882;37.654;2022-10-16T02:43:32;10.27;;;3.75;;
50671;SDS011;46021;55.882;37.654;2022-10-16T02:46:01;12.65;;;4.88;;
50671;SDS011;46021;55.882;37.654;2022-10-16T02:48:28;16.60;;;4.13;;
50671;SDS011;46021;55.882;37.654;2022-10-16T02:50:55;8.55;;;3.33;;
50671;SDS011;46021;55.882;37.654;2022-10-16T02:53:22;19.00;;;6.53;;
50671;SDS011;46021;55.882;37.654;2022-10-16T02:55:51;12.63;;;5.70;;
50671;SDS011;46021;55.882;37.654;2022-10-16T02:58:18;9.50;;;4.13;;
50671;SDS011;46021;55.882;37.654;2022-10-16T03:00:45;8.38;;;3.53;;
50671;SDS011;46021;55.882;37.654;2022-10-16T03:03:13;18.47;;;4.10;;
50671;SDS011;46021;55.882;37.654;2022-10-16T03:05:40;7.53;;;4.05;;
50671;SDS011;46021;55.882;37.654;2022-10-16T03:08:11;28.40;;;7.30;;
50671;SDS011;46021;55.882;37.654;2022-10-16T03:10:38;19.00;;;3.90;;
50671;SDS011;46021;55.882;37.654;2022-10-16T03:13:05;11.18;;;4.25;;
50671;SDS011;46021;55.882;37.654;2022-10-16T03:15:32;8.63;;;3.67;;
50671;SDS011;46021;55.882;37.654;2022-10-16T03:17:59;13.90;;;3.63;;
50671;SDS011;46021;55.882;37.654;2022-10-16T03:20:28;9.82;;;3.70;;
50671;SDS011;46021;55.882;37.654;2022-10-16T03:22:55;9.52;;;4.03;;
50671;SDS011;46021;55.882;37.654;2022-10-16T03:25:22;10.55;;;3.60;;
50671;SDS011;46021;55.882;37.654;2022-10-16T03:27:49;10.33;;;3.63;;
50671;SDS011;46021;55.882;37.654;2022-10-16T03:30:17;12.70;;;6.32;;
50671;SDS011;46021;55.882;37.654;2022-10-16T03:32:44;9.27;;;3.25;;
50671;SDS011;46021;55.882;37.654;2022-10-16T03:35:11;10.20;;;3.83;;
50671;SDS011;46021;55.882;37.654;2022-10-16T03:37:40;9.75;;;3.45;;
50671;SDS011;46021;55.882;37.654;2022-10-16T03:40:07;27.92;;;3.97;;
50671;SDS011;46021;55.882;37.654;2022-10-16T03:42:35;8.82;;;4.13;;
50671;SDS011;46021;55.882;37.654;2022-10-16T03:45:02;8.50;;;3.33;;
50671;SDS011;46021;55.882;37.654;2022-10-16T03:47:30;8.02;;;3.72;;
50671;SDS011;46021;55.882;37.654;2022-10-16T03:49:58;6.60;;;3.45;;
50671;SDS011;46021;55.882;37.654;2022-10-16T03:52:26;7.77;;;3.13;;
50671;SDS011;46021;55.882;37.654;2022-10-16T03:54:54;6.60;;;3.17;;
50671;SDS011;46021;55.882;37.654;2022-10-16T03:57:21;8.88;;;3.75;;
50671;SDS011;46021;55.882;37.654;2022-10-16T03:59:48;9.30;;;3.95;;
50671;SDS011;46021;55.882;37.654;2022-10-16T04:02:16;9.23;;;3.65;;
50671;SDS011;46021;55.882;37.654;2022-10-16T04:04:43;7.38;;;3.38;;
50671;SDS011;46021;55.882;37.654;2022-10-16T04:07:10;10.98;;;5.13;;
50671;SDS011;46021;55.882;37.654;2022-10-16T04:09:37;10.63;;;2.78;;
50671;SDS011;46021;55.882;37.654;2022-10-16T04:12:05;12.17;;;4.67;;
50671;SDS011;46021;55.882;37.654;2022-10-16T04:14:32;13.40;;;5.60;;
50671;SDS011;46021;55.882;37.654;2022-10-16T04:17:00;8.93;;;2.85;;
50671;SDS011;46021;55.882;37.654;2022-10-16T04:19:27;5.32;;;3.10;;
50671;SDS011;46021;55.882;37.654;2022-10-16T04:21:54;10.57;;;5.72;;
50671;SDS011;46021;55.882;37.654;2022-10-16T04:24:21;9.30;;;3.10;;
50671;SDS011;46021;55.882;37.654;2022-10-16T04:26:48;10.82;;;4.05;;
50671;SDS011;46021;55.882;37.654;2022-10-16T04:29:16;11.35;;;3.22;;
50671;SDS011;46021;55.882;37.654;2022-10-16T04:31:44;8.30;;;3.38;;
50671;SDS011;46021;55.882;37.654;2022-10-16T04:34:11;14.98;;;5.60;;
50671;SDS011;46021;55.882;37.654;2022-10-16T04:36:38;8.77;;;3.53;;
50671;SDS011;46021;55.882;37.654;2022-10-16T04:39:05;10.87;;;3.70;;
50671;SDS011;46021;55.882;37.654;2022-10-16T04:41:32;7.47;;;3.88;;
50671;SDS011;46021;55.882;37.654;2022-10-16T04:43:59;8.73;;;4.05;;
50671;SDS011;46021;55.882;37.654;2022-10-16T04:46:28;13.20;;;3.70;;
50671;SDS011;46021;55.882;37.654;2022-10-16T04:48:55;15.60;;;5.05;;
50671;SDS011;46021;55.882;37.654;2022-10-16T04:51:22;12.73;;;5.60;;
50671;SDS011;46021;55.882;37.654;2022-10-16T04:53:50;10.73;;;5.28;;
50671;SDS011;46021;55.882;37.654;2022-10-16T04:56:18;12.07;;;6.60;;
50671;SDS011;46021;55.882;37.654;2022-10-16T04:58:46;11.98;;;5.47;;
50671;SDS011;46021;55.882;37.654;2022-10-16T05:01:13;10.98;;;5.07;;
50671;SDS011;46021;55.882;37.654;2022-10-16T05:03:42;13.00;;;4.93;;
50671;SDS011;46021;55.882;37.654;2022-10-16T05:06:09;9.50;;;4.78;;
50671;SDS011;46021;55.882;37.654;2022-10-16T05:08:36;10.53;;;5.43;;
50671;SDS011;46021;55.882;37.654;2022-10-16T05:11:03;12.98;;;6.10;;
50671;SDS011;46021;55.882;37.654;2022-10-16T05:13:30;12.15;;;5.32;;
50671;SDS011;46021;55.882;37.654;2022-10-16T05:15:57;13.50;;;5.57;;
50671;SDS011;46021;55.882;37.654;2022-10-16T05:18:25;7.35;;;2.95;;
50671;SDS011;46021;55.882;37.654;2022-10-16T05:20:53;9.60;;;4.90;;
50671;SDS011;46021;55.882;37.654;2022-10-16T05:23:20;9.43;;;3.45;;
50671;SDS011;46021;55.882;37.654;2022-10-16T05:25:57;15.88;;;3.97;;
50671;SDS011;46021;55.882;37.654;2022-10-16T05:28:25;11.00;;;5.10;;
50671;SDS011;46021;55.882;37.654;2022-10-16T05:30:53;13.45;;;5.20;;
50671;SDS011;46021;55.882;37.654;2022-10-16T05:33:21;5.07;;;2.57;;
50671;SDS011;46021;55.882;37.654;2022-10-16T05:35:49;12.05;;;5.38;;
50671;SDS011;46021;55.882;37.654;2022-10-16T05:38:18;10.18;;;3.28;;
50671;SDS011;46021;55.882;37.654;2022-10-16T05:40:50;11.73;;;5.43;;
50671;SDS011;46021;55.882;37.654;2022-10-16T05:43:18;13.10;;;3.78;;
50671;SDS011;46021;55.882;37.654;2022-10-16T05:45:52;5.93;;;3.60;;
50671;SDS011;46021;55.882;37.654;2022-10-16T05:48:20;11.65;;;3.17;;
50671;SDS011;46021;55.882;37.654;2022-10-16T05:50:47;7.33;;;3.20;;
50671;SDS011;46021;55.882;37.654;2022-10-16T05:53:14;8.50;;;3.53;;
50671;SDS011;46021;55.882;37.654;2022-10-16T05:55:43;7.65;;;3.22;;
50671;SDS011;46021;55.882;37.654;2022-10-16T05:58:17;13.52;;;5.68;;
50671;SDS011;46021;55.882;37.654;2022-10-16T06:00:45;11.70;;;4.60;;
50671;SDS011;46021;55.882;37.654;2022-10-16T06:03:19;14.77;;;5.63;;
50671;SDS011;46021;55.882;37.654;2022-10-16T06:05:46;14.27;;;3.83;;
50671;SDS011;46021;55.882;37.654;2022-10-16T06:08:13;15.68;;;4.50;;
50671;SDS011;46021;55.882;37.654;2022-10-16T06:10:40;16.30;;;5.78;;
50671;SDS011;46021;55.882;37.654;2022-10-16T06:13:10;22.23;;;6.60;;
50671;SDS011;46021;55.882;37.654;2022-10-16T06:15:37;10.97;;;3.27;;
50671;SDS011;46021;55.882;37.654;2022-10-16T06:18:07;15.70;;;4.40;;
50671;SDS011;46021;55.882;37.654;2022-10-16T06:20:34;11.95;;;3.60;;
50671;SDS011;46021;55.882;37.654;2022-10-16T06:23:02;11.23;;;3.67;;
50671;SDS011;46021;55.882;37.654;2022-10-16T06:25:29;8.23;;;3.53;;
50671;SDS011;46021;55.882;37.654;2022-10-16T06:27:58;18.37;;;6.20;;
50671;SDS011;46021;55.882;37.654;2022-10-16T06:30:26;10.77;;;5.53;;
50671;SDS011;46021;55.882;37.654;2022-10-16T06:32:53;13.25;;;6.00;;
50671;SDS011;46021;55.882;37.654;2022-10-16T06:35:21;17.15;;;5.75;;
50671;SDS011;46021;55.882;37.654;2022-10-16T06:37:49;22.23;;;6.30;;
50671;SDS011;46021;55.882;37.654;2022-10-16T06:40:16;10.18;;;6.03;;
50671;SDS011;46021;55.882;37.654;2022-10-16T06:42:43;16.47;;;4.60;;
50671;SDS011;46021;55.882;37.654;2022-10-16T06:45:11;10.55;;;3.65;;
50671;SDS011;46021;55.882;37.654;2022-10-16T06:47:40;10.48;;;5.22;;
50671;SDS011;46021;55.882;37.654;2022-10-16T06:50:07;13.30;;;5.78;;
50671;SDS011;46021;55.882;37.654;2022-10-16T06:52:35;11.55;;;5.88;;
50671;SDS011;46021;55.882;37.654;2022-10-16T06:55:02;14.07;;;5.23;;
50671;SDS011;46021;55.882;37.654;2022-10-16T06:57:30;11.63;;;5.40;;
50671;SDS011;46021;55.882;37.654;2022-10-16T06:59:58;10.60;;;5.75;;
50671;SDS011;46021;55.882;37.654;2022-10-16T07:02:26;13.37;;;5.43;;
50671;SDS011;46021;55.882;37.654;2022-10-16T07:04:53;12.15;;;5.75;;
50671;SDS011;46021;55.882;37.654;2022-10-16T07:07:22;12.60;;;6.22;;
50671;SDS011;46021;55.882;37.654;2022-10-16T07:09:50;11.75;;;5.40;;
50671;SDS011;46021;55.882;37.654;2022-10-16T07:12:17;14.95;;;6.15;;
50671;SDS011;46021;55.882;37.654;2022-10-16T07:14:44;12.25;;;6.15;;
50671;SDS011;46021;55.882;37.654;2022-10-16T07:17:12;11.50;;;5.30;;
50671;SDS011;46021;55.882;37.654;2022-10-16T07:19:40;12.87;;;5.50;;
50671;SDS011;46021;55.882;37.654;2022-10-16T07:22:07;18.50;;;6.38;;
50671;SDS011;46021;55.882;37.654;2022-10-16T07:24:34;23.48;;;10.38;;
50671;SDS011;46021;55.882;37.654;2022-10-16T07:27:02;15.50;;;6.65;;
50671;SDS011;46021;55.882;37.654;2022-10-16T07:29:32;15.05;;;6.38;;
50671;SDS011;46021;55.882;37.654;2022-10-16T07:31:59;18.23;;;7.60;;
50671;SDS011;46021;55.882;37.654;2022-10-16T07:34:28;13.50;;;6.30;;
50671;SDS011;46021;55.882;37.654;2022-10-16T07:36:56;13.80;;;5.72;;
50671;SDS011;46021;55.882;37.654;2022-10-16T07:39:23;10.93;;;6.05;;
50671;SDS011;46021;55.882;37.654;2022-10-16T07:41:50;12.07;;;6.03;;
50671;SDS011;46021;55.882;37.654;2022-10-16T07:44:17;8.63;;;4.70;;
50671;SDS011;46021;55.882;37.654;2022-10-16T07:46:45;13.25;;;5.97;;
50671;SDS011;46021;55.882;37.654;2022-10-16T07:49:12;11.57;;;5.50;;
50671;SDS011;46021;55.882;37.654;2022-10-16T07:51:39;12.53;;;6.10;;
50671;SDS011;46021;55.882;37.654;2022-10-16T07:54:09;11.73;;;5.97;;
50671;SDS011;46021;55.882;37.654;2022-10-16T07:56:36;19.23;;;5.95;;
50671;SDS011;46021;55.882;37.654;2022-10-16T07:59:03;12.60;;;5.80;;
50671;SDS011;46021;55.882;37.654;2022-10-16T08:01:30;15.63;;;6.53;;
50671;SDS011;46021;55.882;37.654;2022-10-16T08:03:57;13.33;;;5.53;;
50671;SDS011;46021;55.882;37.654;2022-10-16T08:06:25;12.63;;;5.50;;
50671;SDS011;46021;55.882;37.654;2022-10-16T08:08:52;15.50;;;5.87;;
50671;SDS011;46021;55.882;37.654;2022-10-16T08:11:20;16.85;;;5.72;;
50671;SDS011;46021;55.882;37.654;2022-10-16T08:13:48;13.20;;;5.60;;
50671;SDS011;46021;55.882;37.654;2022-10-16T08:16:15;17.17;;;5.57;;
50671;SDS011;46021;55.882;37.654;2022-10-16T08:18:43;20.02;;;5.15;;
50671;SDS011;46021;55.882;37.654;2022-10-16T08:21:12;10.45;;;4.93;;
50671;SDS011;46021;55.882;37.654;2022-10-16T08:23:40;18.27;;;6.10;;
50671;SDS011;46021;55.882;37.654;2022-10-16T08:26:07;14.93;;;5.67;;
50671;SDS011;46021;55.882;37.654;2022-10-16T08:28:37;11.52;;;5.60;;
50671;SDS011;46021;55.882;37.654;2022-10-16T08:31:05;13.43;;;5.60;;
50671;SDS011;46021;55.882;37.654;2022-10-16T08:33:33;13.05;;;5.07;;
50671;SDS011;46021;55.882;37.654;2022-10-16T08:36:01;13.43;;;5.00;;
50671;SDS011;46021;55.882;37.654;2022-10-16T08:40:57;10.88;;;4.97;;
50671;SDS011;46021;55.882;37.654;2022-10-16T08:43:46;14.93;;;4.25;;
50671;SDS011;46021;55.882;37.654;2022-10-16T08:46:28;11.93;;;4.38;;
50671;SDS011;46021;55.882;37.654;2022-10-16T08:49:10;8.40;;;4.00;;
50671;SDS011;46021;55.882;37.654;2022-10-16T08:51:40;13.20;;;3.42;;
50671;SDS011;46021;55.882;37.654;2022-10-16T08:54:12;12.45;;;4.47;;
50671;SDS011;46021;55.882;37.654;2022-10-16T08:56:49;18.15;;;4.75;;
50671;SDS011;46021;55.882;37.654;2022-10-16T08:59:17;16.85;;;4.88;;
50671;SDS011;46021;55.882;37.654;2022-10-16T09:01:46;13.15;;;3.92;;
50671;SDS011;46021;55.882;37.654;2022-10-16T09:04:26;13.82;;;3.58;;
50671;SDS011;46021;55.882;37.654;2022-10-16T09:07:11;15.90;;;4.05;;
50671;SDS011;46021;55.882;37.654;2022-10-16T09:09:50;13.40;;;3.60;;
50671;SDS011;46021;55.882;37.654;2022-10-16T09:12:28;8.00;;;3.65;;
50671;SDS011;46021;55.882;37.654;2022-10-16T09:15:11;8.82;;;3.42;;
50671;SDS011;46021;55.882;37.654;2022-10-16T09:17:46;8.38;;;2.80;;
50671;SDS011;46021;55.882;37.654;2022-10-16T09:20:27;15.35;;;3.78;;
50671;SDS011;46021;55.882;37.654;2022-10-16T09:23:13;8.77;;;3.25;;
50671;SDS011;46021;55.882;37.654;2022-10-16T09:25:43;9.90;;;3.80;;
50671;SDS011;46021;55.882;37.654;2022-10-16T09:28:15;6.93;;;2.63;;
50671;SDS011;46021;55.882;37.654;2022-10-16T09:30:47;7.68;;;2.83;;
50671;SDS011;46021;55.882;37.654;2022-10-16T09:33:15;5.13;;;2.95;;
50671;SDS011;46021;55.882;37.654;2022-10-16T09:35:45;11.43;;;3.63;;
50671;SDS011;46021;55.882;37.654;2022-10-16T09:38:22;7.20;;;2.83;;
50671;SDS011;46021;55.882;37.654;2022-10-16T09:40:53;8.05;;;3.05;;
50671;SDS011;46021;55.882;37.654;2022-10-16T09:43:22;10.50;;;2.92;;
50671;SDS011;46021;55.882;37.654;2022-10-16T09:45:55;7.18;;;2.85;;
50671;SDS011;46021;55.882;37.654;2022-10-16T09:48:24;6.80;;;3.08;;
50671;SDS011;46021;55.882;37.654;2022-10-16T09:50:58;5.25;;;2.95;;
50671;SDS011;46021;55.882;37.654;2022-10-16T09:53:37;7.63;;;2.88;;
50671;SDS011;46021;55.882;37.654;2022-10-16T09:56:06;6.78;;;2.83;;
50671;SDS011;46021;55.882;37.654;2022-10-16T09:58:34;11.10;;;3.13;;
50671;SDS011;46021;55.882;37.654;2022-10-16T10:01:04;6.85;;;2.80;;
50671;SDS011;46021;55.882;37.654;2022-10-16T10:03:34;8.23;;;3.15;;
50671;SDS011;46021;55.882;37.654;2022-10-16T10:06:05;6.72;;;2.80;;
50671;SDS011;46021;55.882;37.654;2022-10-16T10:08:52;5.68;;;2.90;;
50671;SDS011;46021;55.882;37.654;2022-10-16T10:11:42;5.75;;;2.80;;
50671;SDS011;46021;55.882;37.654;2022-10-16T10:14:30;5.50;;;2.50;;
50671;SDS011;46021;55.882;37.654;2022-10-16T10:17:07;5.82;;;2.63;;
50671;SDS011;46021;55.882;37.654;2022-10-16T10:19:38;5.78;;;2.58;;
50671;SDS011;46021;55.882;37.654;2022-10-16T10:22:16;8.70;;;2.33;;
50671;SDS011;46021;55.882;37.654;2022-10-16T10:24:53;6.55;;;2.67;;
50671;SDS011;46021;55.882;37.654;2022-10-16T10:27:21;6.72;;;2.70;;
50671;SDS011;46021;55.882;37.654;2022-10-16T10:29:57;7.30;;;2.33;;
50671;SDS011;46021;55.882;37.654;2022-10-16T10:32:33;7.22;;;2.42;;
50671;SDS011;46021;55.882;37.654;2022-10-16T10:35:13;7.00;;;2.42;;
50671;SDS011;46021;55.882;37.654;2022-10-16T10:37:49;14.50;;;3.78;;
50671;SDS011;46021;55.882;37.654;2022-10-16T10:40:28;6.00;;;2.20;;
50671;SDS011;46021;55.882;37.654;2022-10-16T10:43:04;10.82;;;2.25;;
50671;SDS011;46021;55.882;37.654;2022-10-16T10:45:42;8.85;;;3.40;;
50671;SDS011;46021;55.882;37.654;2022-10-16T10:48:19;6.28;;;2.33;;
50671;SDS011;46021;55.882;37.654;2022-10-16T10:50:56;4.35;;;2.50;;
50671;SDS011;46021;55.882;37.654;2022-10-16T10:53:31;8.20;;;3.53;;
50671;SDS011;46021;55.882;37.654;2022-10-16T10:56:10;10.48;;;2.75;;
50671;SDS011;46021;55.882;37.654;2022-10-16T11:01:50;6.90;;;2.60;;
50671;SDS011;46021;55.882;37.654;2022-10-16T11:07:18;4.72;;;2.75;;
50671;SDS011;46021;55.882;37.654;2022-10-16T11:09:49;6.15;;;2.75;;
50671;SDS011;46021;55.882;37.654;2022-10-16T11:12:20;8.27;;;2.58;;
50671;SDS011;46021;55.882;37.654;2022-10-16T11:14:54;14.55;;;3.00;;
50671;SDS011;46021;55.882;37.654;2022-10-16T11:17:29;11.55;;;2.90;;
50671;SDS011;46021;55.882;37.654;2022-10-16T11:20:03;7.75;;;2.97;;
50671;SDS011;46021;55.882;37.654;2022-10-16T11:22:39;8.25;;;2.40;;
50671;SDS011;46021;55.882;37.654;2022-10-16T11:25:13;7.30;;;2.80;;
50671;SDS011;46021;55.882;37.654;2022-10-16T11:27:43;6.53;;;3.17;;
50671;SDS011;46021;55.882;37.654;2022-10-16T11:30:18;8.88;;;3.08;;
50671;SDS011;46021;55.882;37.654;2022-10-16T11:32:58;11.20;;;3.63;;
50671;SDS011;46021;55.882;37.654;2022-10-16T11:35:36;10.35;;;3.03;;
50671;SDS011;46021;55.882;37.654;2022-10-16T11:38:10;10.30;;;3.67;;
50671;SDS011;46021;55.882;37.654;2022-10-16T11:40:45;6.82;;;3.15;;
50671;SDS011;46021;55.882;37.654;2022-10-16T11:43:17;9.00;;;2.83;;
50671;SDS011;46021;55.882;37.654;2022-10-16T11:45:49;8.77;;;3.78;;
50671;SDS011;46021;55.882;37.654;2022-10-16T11:48:21;6.68;;;2.92;;
50671;SDS011;46021;55.882;37.654;2022-10-16T11:50:54;7.80;;;2.90;;
50671;SDS011;46021;55.882;37.654;2022-10-16T11:53:30;8.45;;;3.47;;
50671;SDS011;46021;55.882;37.654;2022-10-16T11:56:05;7.10;;;3.20;;
50671;SDS011;46021;55.882;37.654;2022-10-16T11:58:33;6.20;;;3.05;;
50671;SDS011;46021;55.882;37.654;2022-10-16T12:01:10;7.88;;;3.17;;
50671;SDS011;46021;55.882;37.654;2022-10-16T12:03:46;10.27;;;3.10;;
50671;SDS011;46021;55.882;37.654;2022-10-16T12:06:30;6.90;;;2.88;;
50671;SDS011;46021;55.882;37.654;2022-10-16T12:09:00;9.15;;;3.00;;
50671;SDS011;46021;55.882;37.654;2022-10-16T12:11:33;6.45;;;2.92;;
50671;SDS011;46021;55.882;37.654;2022-10-16T12:14:07;5.30;;;2.75;;
50671;SDS011;46021;55.882;37.654;2022-10-16T12:16:51;6.78;;;3.38;;
50671;SDS011;46021;55.882;37.654;2022-10-16T12:19:20;7.97;;;3.08;;
50671;SDS011;46021;55.882;37.654;2022-10-16T12:21:49;6.65;;;2.88;;
50671;SDS011;46021;55.882;37.654;2022-10-16T12:27:20;6.20;;;3.40;;
50671;SDS011;46021;55.882;37.654;2022-10-16T12:29:54;10.50;;;3.13;;
50671;SDS011;46021;55.882;37.654;2022-10-16T12:32:29;7.05;;;3.22;;
50671;SDS011;46021;55.882;37.654;2022-10-16T12:34:58;12.38;;;3.28;;
50671;SDS011;46021;55.882;37.654;2022-10-16T12:37:31;6.70;;;2.83;;
50671;SDS011;46021;55.882;37.654;2022-10-16T12:40:00;7.10;;;3.53;;
50671;SDS011;46021;55.882;37.654;2022-10-16T12:42:40;11.30;;;3.42;;
50671;SDS011;46021;55.882;37.654;2022-10-16T12:45:22;7.88;;;3.40;;
50671;SDS011;46021;55.882;37.654;2022-10-16T12:47:53;7.55;;;3.58;;
50671;SDS011;46021;55.882;37.654;2022-10-16T12:50:26;11.40;;;3.80;;
50671;SDS011;46021;55.882;37.654;2022-10-16T12:52:59;10.30;;;3.53;;
50671;SDS011;46021;55.882;37.654;2022-10-16T12:55:30;8.15;;;3.90;;
50671;SDS011;46021;55.882;37.654;2022-10-16T12:58:21;9.90;;;3.60;;
50671;SDS011;46021;55.882;37.654;2022-10-16T13:01:02;4.78;;;3.00;;
50671;SDS011;46021;55.882;37.654;2022-10-16T13:06:26;10.63;;;3.47;;
50671;SDS011;46021;55.882;37.654;2022-10-16T13:09:13;7.28;;;3.35;;
50671;SDS011;46021;55.882;37.654;2022-10-16T13:11:52;8.85;;;3.20;;
50671;SDS011;46021;55.882;37.654;2022-10-16T13:17:37;4.70;;;2.90;;
50671;SDS011;46021;55.882;37.654;2022-10-16T13:20:16;9.43;;;3.92;;
50671;SDS011;46021;55.882;37.654;2022-10-16T13:22:53;6.57;;;3.20;;
50671;SDS011;46021;55.882;37.654;2022-10-16T13:25:31;13.93;;;3.28;;
50671;SDS011;46021;55.882;37.654;2022-10-16T13:28:07;12.00;;;3.47;;
50671;SDS011;46021;55.882;37.654;2022-10-16T13:30:38;11.52;;;3.28;;
50671;SDS011;46021;55.882;37.654;2022-10-16T13:33:10;8.23;;;3.85;;
50671;SDS011;46021;55.882;37.654;2022-10-16T13:35:47;9.52;;;3.60;;
50671;SDS011;46021;55.882;37.654;2022-10-16T13:38:17;6.93;;;3.17;;
50671;SDS011;46021;55.882;37.654;2022-10-16T13:40:54;7.53;;;3.17;;
50671;SDS011;46021;55.882;37.654;2022-10-16T13:43:23;10.48;;;3.35;;
50671;SDS011;46021;55.882;37.654;2022-10-16T13:45:54;7.93;;;3.38;;
50671;SDS011;46021;55.882;37.654;2022-10-16T13:48:23;8.93;;;3.53;;
50671;SDS011;46021;55.882;37.654;2022-10-16T13:51:00;13.48;;;3.60;;
50671;SDS011;46021;55.882;37.654;2022-10-16T13:53:29;8.73;;;3.00;;
50671;SDS011;46021;55.882;37.654;2022-10-16T13:55:59;13.63;;;3.30;;
50671;SDS011;46021;55.882;37.654;2022-10-16T13:58:29;15.68;;;3.95;;
50671;SDS011;46021;55.882;37.654;2022-10-16T14:00:57;10.68;;;3.55;;
50671;SDS011;46021;55.882;37.654;2022-10-16T14:03:25;5.97;;;3.25;;
50671;SDS011;46021;55.882;37.654;2022-10-16T14:05:55;8.32;;;3.55;;
50671;SDS011;46021;55.882;37.654;2022-10-16T14:08:26;10.20;;;3.58;;
50671;SDS011;46021;55.882;37.654;2022-10-16T14:10:55;6.55;;;3.25;;
50671;SDS011;46021;55.882;37.654;2022-10-16T14:13:28;6.90;;;3.60;;
50671;SDS011;46021;55.882;37.654;2022-10-16T14:15:59;8.13;;;4.00;;
50671;SDS011;46021;55.882;37.654;2022-10-16T14:18:32;7.53;;;3.20;;
50671;SDS011;46021;55.882;37.654;2022-10-16T14:23:32;12.07;;;3.90;;
50671;SDS011;46021;55.882;37.654;2022-10-16T14:26:07;8.27;;;3.28;;
50671;SDS011;46021;55.882;37.654;2022-10-16T14:28:41;9.20;;;3.65;;
50671;SDS011;46021;55.882;37.654;2022-10-16T14:31:29;10.88;;;3.58;;
50671;SDS011;46021;55.882;37.654;2022-10-16T14:33:57;8.35;;;3.10;;
50671;SDS011;46021;55.882;37.654;2022-10-16T14:36:25;6.53;;;3.45;;
50671;SDS011;46021;55.882;37.654;2022-10-16T14:38:57;14.25;;;4.25;;
50671;SDS011;46021;55.882;37.654;2022-10-16T14:41:28;8.35;;;3.80;;
50671;SDS011;46021;55.882;37.654;2022-10-16T14:43:58;10.35;;;3.65;;
50671;SDS011;46021;55.882;37.654;2022-10-16T14:46:30;10.65;;;3.40;;
50671;SDS011;46021;55.882;37.654;2022-10-16T14:49:03;16.23;;;5.68;;
50671;SDS011;46021;55.882;37.654;2022-10-16T14:51:39;12.63;;;4.97;;
50671;SDS011;46021;55.882;37.654;2022-10-16T14:54:10;11.35;;;4.32;;
50671;SDS011;46021;55.882;37.654;2022-10-16T14:56:42;7.45;;;4.07;;
50671;SDS011;46021;55.882;37.654;2022-10-16T14:59:15;8.63;;;3.92;;
50671;SDS011;46021;55.882;37.654;2022-10-16T15:01:45;10.55;;;3.88;;
50671;SDS011;46021;55.882;37.654;2022-10-16T15:06:41;7.13;;;3.45;;
50671;SDS011;46021;55.882;37.654;2022-10-16T15:11:35;8.52;;;3.40;;
50671;SDS011;46021;55.882;37.654;2022-10-16T15:14:03;11.18;;;3.95;;
50671;SDS011;46021;55.882;37.654;2022-10-16T15:16:32;7.55;;;3.78;;
50671;SDS011;46021;55.882;37.654;2022-10-16T15:18:59;11.10;;;4.47;;
50671;SDS011;46021;55.882;37.654;2022-10-16T15:21:28;8.00;;;4.00;;